Time;durP1;ratioP1;P1;durP2;ratioP2;P2;SDS_P1;SDS_P2;PMS_P1;PMS_P2;Temp;Humidity;BMP_temperature;BMP_pressure;BME280_temperature;BME280_humidity;BME280_pressure;Samples;Min_cycle;Max_cycle;Signal;HPM_P1;HPM_P2
2021/09/08 00:00:49;;;;;;;6.20;4.43;;;24.10;59.30;;;;;;5073381;28;20021;-72
2021/09/08 00:03:15;;;;;;;7.50;3.75;;;24.10;58.10;;;;;;5073337;28;20055;-73
2021/09/08 00:05:41;;;;;;;6.97;3.97;;;24.10;58.30;;;;;;5073607;28;20024;-73
2021/09/08 00:08:07;;;;;;;6.20;4.00;;;24.00;58.50;;;;;;5070935;28;20051;-72
2021/09/08 00:10:32;;;;;;;8.20;4.32;;;24.00;59.30;;;;;;5073292;28;20025;-72
2021/09/08 00:12:58;;;;;;;7.80;4.25;;;24.00;59.10;;;;;;5073500;28;20024;-72
2021/09/08 00:15:24;;;;;;;6.38;4.03;;;23.90;59.00;;;;;;5073211;28;20031;-72
2021/09/08 00:17:49;;;;;;;7.18;4.32;;;23.90;59.60;;;;;;5073446;28;20494;-71
2021/09/08 00:20:15;;;;;;;8.40;5.18;;;24.00;59.40;;;;;;5073178;28;20025;-72
2021/09/08 00:22:42;;;;;;;7.05;3.92;;;24.10;60.10;;;;;;5073460;28;20098;-72
2021/09/08 00:25:09;;;;;;;8.77;4.25;;;24.10;60.20;;;;;;5073042;28;20023;-72
2021/09/08 00:27:35;;;;;;;7.25;4.50;;;24.10;60.30;;;;;;5073037;28;20029;-72
2021/09/08 00:30:00;;;;;;;8.68;4.15;;;24.10;60.70;;;;;;5073303;28;20425;-73
2021/09/08 00:32:26;;;;;;;5.78;3.88;;;24.00;61.60;;;;;;5073279;28;20364;-73
2021/09/08 00:34:52;;;;;;;7.82;4.45;;;24.00;62.30;;;;;;5073226;28;20050;-72
2021/09/08 00:37:17;;;;;;;8.25;4.55;;;23.90;63.20;;;;;;5072979;28;20081;-72
2021/09/08 00:39:44;;;;;;;6.25;4.18;;;23.70;64.30;;;;;;5072986;28;20016;-73
2021/09/08 00:42:14;;;;;;;6.93;4.18;;;23.80;63.50;;;;;;5073232;28;20104;-73
2021/09/08 00:44:41;;;;;;;7.03;4.20;;;23.80;64.70;;;;;;5073148;28;20103;-73
2021/09/08 00:47:10;;;;;;;6.97;4.25;;;23.70;63.70;;;;;;5073141;28;20021;-72
2021/09/08 00:49:36;;;;;;;6.07;4.13;;;23.70;63.30;;;;;;5072915;28;20016;-72
2021/09/08 00:52:06;;;;;;;6.85;4.65;;;23.60;64.40;;;;;;5073099;28;20024;-73
2021/09/08 00:54:34;;;;;;;7.50;4.55;;;23.50;66.40;;;;;;5073093;28;20029;-73
2021/09/08 00:57:03;;;;;;;7.38;4.53;;;23.30;67.20;;;;;;5072828;28;20367;-72
2021/09/08 00:59:29;;;;;;;6.78;4.55;;;23.40;67.60;;;;;;5072825;28;20470;-73
2021/09/08 01:01:54;;;;;;;7.35;4.88;;;23.30;67.70;;;;;;5072801;28;20032;-72
2021/09/08 01:04:20;;;;;;;6.10;4.57;;;23.20;68.10;;;;;;5072628;28;20482;-71
2021/09/08 01:06:46;;;;;;;8.15;4.63;;;23.20;68.70;;;;;;5072782;28;20465;-71
2021/09/08 01:09:12;;;;;;;7.30;5.10;;;23.10;69.10;;;;;;5073039;28;20021;-73
2021/09/08 01:11:38;;;;;;;8.55;5.30;;;23.10;70.20;;;;;;5072678;28;20479;-72
2021/09/08 01:14:04;;;;;;;7.68;4.78;;;23.10;69.90;;;;;;5072640;28;20080;-72
2021/09/08 01:16:30;;;;;;;9.70;4.90;;;23.10;70.10;;;;;;5072630;28;20538;-72
2021/09/08 01:18:55;;;;;;;8.98;5.55;;;23.00;71.20;;;;;;5071298;28;20089;-73
2021/09/08 01:21:21;;;;;;;9.02;5.07;;;22.90;71.40;;;;;;5076127;28;20021;-73
2021/09/08 01:23:47;;;;;;;7.47;4.60;;;23.00;71.20;;;;;;5076485;28;20470;-72
2021/09/08 01:26:13;;;;;;;8.88;5.10;;;23.10;70.70;;;;;;5076787;28;20048;-72
2021/09/08 01:28:39;;;;;;;8.50;5.45;;;23.10;71.50;;;;;;5076207;28;20024;-71
2021/09/08 01:31:05;;;;;;;8.05;5.05;;;22.90;72.00;;;;;;5076368;28;20016;-73
2021/09/08 01:33:32;;;;;;;9.63;4.78;;;22.80;72.80;;;;;;5074794;28;20028;-72
2021/09/08 01:35:58;;;;;;;8.32;4.97;;;22.60;73.30;;;;;;5076017;28;20454;-73
2021/09/08 01:38:23;;;;;;;8.52;5.13;;;22.60;73.50;;;;;;5076010;28;20418;-72
2021/09/08 01:40:49;;;;;;;9.23;5.13;;;22.50;73.60;;;;;;5076207;28;20028;-73
2021/09/08 01:43:20;;;;;;;7.00;4.82;;;22.40;75.00;;;;;;5076092;28;20067;-72
2021/09/08 01:45:46;;;;;;;8.05;5.20;;;22.30;75.60;;;;;;5075916;28;20031;-72
2021/09/08 01:48:11;;;;;;;6.70;4.90;;;22.20;75.30;;;;;;5075786;28;20020;-72
2021/09/08 01:50:37;;;;;;;9.02;5.35;;;22.10;76.20;;;;;;5074483;28;20033;-73
2021/09/08 01:53:03;;;;;;;6.97;5.20;;;22.10;75.80;;;;;;5075792;28;20020;-73
2021/09/08 01:55:29;;;;;;;8.50;5.05;;;22.10;75.90;;;;;;5076032;28;20083;-72
2021/09/08 01:57:55;;;;;;;8.40;5.72;;;22.10;76.40;;;;;;5075867;28;20036;-72
2021/09/08 02:00:21;;;;;;;6.93;5.28;;;22.00;77.50;;;;;;5074332;28;20067;-73
2021/09/08 02:02:46;;;;;;;7.65;5.18;;;21.90;77.70;;;;;;5075577;28;20025;-71
2021/09/08 02:05:16;;;;;;;10.80;5.70;;;21.90;77.60;;;;;;5075740;28;20533;-72
2021/09/08 02:07:42;;;;;;;7.90;5.10;;;22.00;78.20;;;;;;5075455;28;20041;-71
2021/09/08 02:10:09;;;;;;;7.97;5.63;;;22.00;78.10;;;;;;5075468;28;20044;-73
2021/09/08 02:12:35;;;;;;;7.18;5.18;;;21.90;78.40;;;;;;5075425;28;20032;-73
2021/09/08 02:15:01;;;;;;;7.05;5.22;;;22.00;78.50;;;;;;5075416;28;20024;-72
2021/09/08 02:17:27;;;;;;;7.75;5.00;;;21.90;77.30;;;;;;5075348;28;20509;-72
2021/09/08 02:19:53;;;;;;;9.20;5.70;;;22.00;78.20;;;;;;5075799;28;20021;-72
2021/09/08 02:22:19;;;;;;;8.63;5.70;;;22.10;78.20;;;;;;5075502;28;20025;-72
2021/09/08 02:24:45;;;;;;;8.80;5.32;;;22.10;77.30;;;;;;5075068;28;20154;-73
2021/09/08 02:27:11;;;;;;;9.48;5.85;;;22.20;77.20;;;;;;5075411;28;20055;-73
2021/09/08 02:29:37;;;;;;;9.13;5.75;;;22.10;76.90;;;;;;5075092;28;20021;-73
2021/09/08 02:32:03;;;;;;;6.70;4.93;;;22.00;77.30;;;;;;5074550;28;20470;-72
2021/09/08 02:34:31;;;;;;;9.15;5.60;;;22.00;78.10;;;;;;5074987;28;20110;-72
2021/09/08 02:36:57;;;;;;;8.63;5.60;;;22.10;78.20;;;;;;5075234;28;20028;-72
2021/09/08 02:39:22;;;;;;;7.25;5.28;;;22.10;77.80;;;;;;5075138;28;20027;-73
2021/09/08 02:41:48;;;;;;;10.00;5.80;;;22.20;77.50;;;;;;5074822;28;20065;-72
2021/09/08 02:44:14;;;;;;;7.65;5.15;;;22.20;77.50;;;;;;5074697;28;20454;-73
2021/09/08 02:46:40;;;;;;;10.15;5.93;;;22.30;76.40;;;;;;5074958;28;20031;-72
2021/09/08 02:49:05;;;;;;;9.82;5.90;;;22.20;75.60;;;;;;5074686;28;20016;-72
2021/09/08 02:51:31;;;;;;;9.90;5.93;;;22.10;77.00;;;;;;5074640;28;20559;-72
2021/09/08 02:53:57;;;;;;;10.38;5.45;;;22.10;77.50;;;;;;5074857;28;20020;-73
2021/09/08 02:56:22;;;;;;;10.43;5.22;;;22.10;76.50;;;;;;5074511;28;20069;-73
2021/09/08 02:58:48;;;;;;;7.60;4.85;;;22.20;77.00;;;;;;5074365;28;20521;-73
2021/09/08 03:01:14;;;;;;;8.00;5.13;;;22.20;77.00;;;;;;5074693;28;20493;-71
2021/09/08 03:03:39;;;;;;;7.68;5.10;;;22.30;77.10;;;;;;5074260;28;20052;-72
2021/09/08 03:06:05;;;;;;;9.30;5.60;;;22.10;78.10;;;;;;5074902;28;20062;-71
2021/09/08 03:08:31;;;;;;;6.90;5.18;;;21.90;79.00;;;;;;5073851;28;20044;-72
2021/09/08 03:10:56;;;;;;;7.90;5.68;;;21.80;79.10;;;;;;5072919;28;20024;-72
2021/09/08 03:13:22;;;;;;;8.20;5.68;;;21.90;78.60;;;;;;5074189;28;20023;-72
2021/09/08 03:15:48;;;;;;;6.90;5.25;;;22.00;78.00;;;;;;5074154;28;20390;-72
2021/09/08 03:18:14;;;;;;;8.05;5.60;;;22.00;78.10;;;;;;5074043;28;20017;-72
2021/09/08 03:20:40;;;;;;;7.35;6.20;;;21.90;79.10;;;;;;5074039;28;20070;-72
2021/09/08 03:23:06;;;;;;;7.63;5.18;;;21.80;78.50;;;;;;5074273;28;20420;-72
2021/09/08 03:25:31;;;;;;;9.95;5.82;;;21.80;79.50;;;;;;5074161;28;20028;-71
2021/09/08 03:27:58;;;;;;;8.38;5.03;;;21.70;79.50;;;;;;5073904;28;20016;-71
2021/09/08 03:30:24;;;;;;;7.28;5.47;;;21.60;79.20;;;;;;5073868;28;20029;-73
2021/09/08 03:32:50;;;;;;;9.02;5.40;;;21.60;80.80;;;;;;5074122;28;20112;-72
2021/09/08 03:35:16;;;;;;;13.95;6.03;;;21.60;80.50;;;;;;5073730;28;20064;-72
2021/09/08 03:37:42;;;;;;;9.00;6.13;;;21.40;80.90;;;;;;5073734;28;20024;-72
2021/09/08 03:40:08;;;;;;;8.95;5.53;;;21.50;81.10;;;;;;5074283;28;20063;-72
2021/09/08 03:42:36;;;;;;;7.90;5.72;;;21.50;80.20;;;;;;5073602;28;20024;-72
2021/09/08 03:45:02;;;;;;;8.02;5.55;;;21.30;81.30;;;;;;5072308;28;20402;-72
2021/09/08 03:47:28;;;;;;;9.38;5.80;;;21.20;82.00;;;;;;5073617;28;20024;-71
2021/09/08 03:49:53;;;;;;;8.15;5.22;;;21.20;81.70;;;;;;5073830;28;20028;-73
2021/09/08 03:52:19;;;;;;;9.48;5.00;;;21.30;81.40;;;;;;5073536;28;20021;-72
2021/09/08 03:54:45;;;;;;;7.43;5.25;;;21.40;80.60;;;;;;5073462;28;20028;-72
2021/09/08 03:57:10;;;;;;;7.13;5.40;;;21.40;80.90;;;;;;5073446;28;20028;-73
2021/09/08 03:59:37;;;;;;;7.32;5.50;;;21.40;81.30;;;;;;5073625;28;20024;-71
2021/09/08 04:02:03;;;;;;;11.15;5.50;;;21.30;81.60;;;;;;5073432;28;20031;-73
2021/09/08 04:04:29;;;;;;;8.75;5.72;;;21.40;81.30;;;;;;5073290;28;20032;-71
2021/09/08 04:06:55;;;;;;;8.15;5.70;;;21.40;81.80;;;;;;5073395;28;20098;-72
2021/09/08 04:09:20;;;;;;;9.15;6.22;;;21.40;82.10;;;;;;5073602;28;20032;-71
2021/09/08 04:11:46;;;;;;;10.15;6.25;;;21.40;83.40;;;;;;5073263;28;20044;-72
2021/09/08 04:14:12;;;;;;;11.85;6.68;;;21.40;83.40;;;;;;5073550;28;20386;-72
2021/09/08 04:16:37;;;;;;;8.93;6.40;;;21.00;84.50;;;;;;5073541;28;20026;-72
2021/09/08 04:19:03;;;;;;;10.18;6.20;;;20.80;85.90;;;;;;5073204;28;20063;-73
2021/09/08 04:21:29;;;;;;;9.30;6.18;;;21.00;85.70;;;;;;5073183;28;20032;-73
2021/09/08 04:23:55;;;;;;;9.70;6.03;;;21.00;86.20;;;;;;5073096;28;20090;-73
2021/09/08 04:26:21;;;;;;;12.77;8.88;;;21.00;86.80;;;;;;5073356;28;20027;-72
2021/09/08 04:28:46;;;;;;;15.35;11.23;;;21.00;90.60;;;;;;5073059;28;20017;-72
2021/09/08 04:31:12;;;;;;;18.55;13.35;;;21.00;93.10;;;;;;5073077;28;20427;-72
2021/09/08 04:33:38;;;;;;;19.48;13.48;;;21.10;94.40;;;;;;5073060;28;20025;-72
2021/09/08 04:36:04;;;;;;;17.88;12.73;;;21.20;94.60;;;;;;5073015;28;20032;-72
2021/09/08 04:38:29;;;;;;;15.60;11.85;;;21.30;94.60;;;;;;5073301;28;20051;-71
2021/09/08 04:40:55;;;;;;;15.20;12.18;;;21.50;94.60;;;;;;5073011;28;20028;-72
2021/09/08 04:43:21;;;;;;;17.25;12.20;;;21.50;94.60;;;;;;5072865;28;20078;-72
2021/09/08 04:45:47;;;;;;;9.15;6.32;;;21.60;94.70;;;;;;5072925;28;20421;-73
2021/09/08 04:48:14;;;;;;;11.15;5.43;;;21.50;94.10;;;;;;5073171;28;20024;-72
2021/09/08 04:50:40;;;;;;;6.88;3.90;;;21.60;94.10;;;;;;5072928;28;20025;-71
2021/09/08 04:53:05;;;;;;;6.90;3.00;;;21.50;93.80;;;;;;5073151;28;20032;-72
2021/09/08 04:55:31;;;;;;;5.00;2.90;;;21.50;93.40;;;;;;5075524;28;20032;-73
2021/09/08 04:57:57;;;;;;;5.63;2.90;;;21.40;93.60;;;;;;5076682;28;20024;-73
2021/09/08 05:00:22;;;;;;;9.40;3.20;;;21.40;93.50;;;;;;5076784;28;20028;-72
2021/09/08 05:02:48;;;;;;;5.30;2.65;;;21.20;93.50;;;;;;5076717;28;20024;-72
2021/09/08 05:05:14;;;;;;;12.40;3.40;;;21.00;93.60;;;;;;5076601;28;20383;-72
2021/09/08 05:07:39;;;;;;;8.40;3.10;;;21.00;94.50;;;;;;5076563;28;20045;-72
2021/09/08 05:10:06;;;;;;;4.82;2.80;;;21.00;95.30;;;;;;5076811;28;20482;-73
2021/09/08 05:12:31;;;;;;;5.95;2.33;;;21.00;95.30;;;;;;5076444;28;20029;-73
2021/09/08 05:14:57;;;;;;;8.15;2.55;;;20.90;94.80;;;;;;5076430;28;20188;-73
2021/09/08 05:17:23;;;;;;;18.63;3.92;;;20.80;95.60;;;;;;5076380;28;20394;-73
2021/09/08 05:19:48;;;;;;;18.50;4.32;;;20.70;97.40;;;;;;5076340;28;20545;-72
2021/09/08 05:22:14;;;;;;;14.05;3.38;;;20.70;97.40;;;;;;5076290;28;20031;-72
2021/09/08 05:24:40;;;;;;;12.93;3.53;;;20.60;97.40;;;;;;5076444;28;20039;-72
2021/09/08 05:27:06;;;;;;;9.13;2.92;;;20.60;97.90;;;;;;5076222;28;20108;-73
2021/09/08 05:29:31;;;;;;;8.80;3.28;;;20.60;97.30;;;;;;5076212;28;20497;-72
2021/09/08 05:31:57;;;;;;;7.18;2.40;;;20.50;97.40;;;;;;5076151;28;20029;-72
2021/09/08 05:34:22;;;;;;;6.28;2.70;;;20.30;98.50;;;;;;5076098;28;20029;-72
2021/09/08 05:36:48;;;;;;;8.75;2.88;;;20.40;98.00;;;;;;5076084;28;20028;-72
2021/09/08 05:39:14;;;;;;;6.07;2.70;;;20.30;98.20;;;;;;5076318;28;20029;-72
2021/09/08 05:41:40;;;;;;;5.72;2.63;;;19.90;99.20;;;;;;5076021;28;20103;-73
2021/09/08 05:44:06;;;;;;;6.75;2.70;;;19.90;99.40;;;;;;5075826;28;20035;-72
2021/09/08 05:46:31;;;;;;;8.60;2.92;;;20.10;99.00;;;;;;5075896;28;20017;-72
2021/09/08 05:48:57;;;;;;;6.30;2.40;;;19.90;98.90;;;;;;5075871;28;20402;-72
2021/09/08 05:51:23;;;;;;;7.32;2.30;;;19.80;99.50;;;;;;5075814;28;20481;-72
2021/09/08 05:53:49;;;;;;;6.57;2.40;;;19.60;99.90;;;;;;5075755;28;20028;-72
2021/09/08 05:56:15;;;;;;;4.28;2.40;;;19.40;99.90;;;;;;5076045;28;20059;-72
2021/09/08 05:58:40;;;;;;;4.45;2.30;;;19.60;99.90;;;;;;5075619;28;20035;-72
2021/09/08 06:01:06;;;;;;;5.72;2.05;;;19.60;99.90;;;;;;5075910;28;20404;-71
2021/09/08 06:03:32;;;;;;;5.05;2.40;;;19.90;99.60;;;;;;5075503;28;20035;-72
2021/09/08 06:05:58;;;;;;;5.55;1.98;;;19.90;99.30;;;;;;5074524;28;20103;-73
2021/09/08 06:08:23;;;;;;;4.30;2.00;;;20.00;99.40;;;;;;5075044;28;20044;-73
2021/09/08 06:10:50;;;;;;;5.45;2.30;;;20.20;99.30;;;;;;5075471;28;20024;-72
2021/09/08 06:13:16;;;;;;;6.40;2.35;;;20.30;99.40;;;;;;5075936;28;20025;-73
2021/09/08 06:15:42;;;;;;;8.02;2.85;;;20.50;99.50;;;;;;5075351;28;20104;-72
2021/09/08 06:18:08;;;;;;;7.10;2.20;;;20.60;98.70;;;;;;5075315;28;20024;-73
2021/09/08 06:20:34;;;;;;;6.00;2.20;;;20.70;98.30;;;;;;5075284;28;20025;-73
2021/09/08 06:23:00;;;;;;;4.82;1.90;;;20.80;97.90;;;;;;5075512;28;20029;-73
2021/09/08 06:25:26;;;;;;;4.97;2.40;;;20.80;97.90;;;;;;5075108;28;20402;-73
2021/09/08 06:27:51;;;;;;;5.95;2.50;;;20.80;98.10;;;;;;5075169;28;20054;-72
2021/09/08 06:30:17;;;;;;;8.50;2.50;;;20.80;97.80;;;;;;5075070;28;20031;-73
2021/09/08 06:32:43;;;;;;;4.95;2.10;;;20.80;97.50;;;;;;5073758;28;20072;-72
2021/09/08 06:35:09;;;;;;;7.45;2.70;;;20.90;97.60;;;;;;5074967;28;20036;-71
2021/09/08 06:37:35;;;;;;;7.30;2.03;;;20.90;98.30;;;;;;5074997;28;20021;-72
2021/09/08 06:40:01;;;;;;;4.82;2.10;;;20.80;98.30;;;;;;5074951;28;20056;-73
2021/09/08 06:42:26;;;;;;;5.18;2.10;;;20.80;98.00;;;;;;5074857;28;20390;-73
2021/09/08 06:44:53;;;;;;;5.63;2.38;;;20.70;97.40;;;;;;5074727;28;20031;-73
2021/09/08 06:47:20;;;;;;;6.68;2.67;;;20.60;97.50;;;;;;5074753;28;20041;-73
2021/09/08 06:49:47;;;;;;;4.63;2.10;;;20.50;98.40;;;;;;5074687;28;20028;-73
2021/09/08 06:52:12;;;;;;;5.55;2.67;;;20.60;98.70;;;;;;5074652;28;20356;-72
2021/09/08 06:54:38;;;;;;;3.80;2.08;;;20.70;98.20;;;;;;5074572;28;20081;-72
2021/09/08 06:57:04;;;;;;;5.03;2.35;;;20.70;98.10;;;;;;5074489;28;20025;-71
2021/09/08 06:59:29;;;;;;;7.97;2.00;;;20.70;98.40;;;;;;5074981;28;20066;-72
2021/09/08 07:01:55;;;;;;;5.30;2.10;;;20.70;98.50;;;;;;5074753;28;20039;-73
2021/09/08 07:04:21;;;;;;;3.55;2.08;;;20.80;97.90;;;;;;5074335;28;20035;-73
2021/09/08 07:06:46;;;;;;;4.75;2.63;;;20.80;98.40;;;;;;5074367;28;20550;-76
2021/09/08 07:09:12;;;;;;;6.18;2.92;;;20.50;99.90;;;;;;5074592;28;20025;-74
2021/09/08 07:11:38;;;;;;;9.73;2.65;;;20.20;99.90;;;;;;5074273;28;20021;-73
2021/09/08 07:14:04;;;;;;;6.13;2.70;;;20.10;99.90;;;;;;5074446;28;20078;-74
2021/09/08 07:16:29;;;;;;;5.75;3.03;;;19.90;99.90;;;;;;5074715;28;20017;-73
2021/09/08 07:18:55;;;;;;;4.30;2.60;;;19.80;99.90;;;;;;5074123;28;20102;-72
2021/09/08 07:21:21;;;;;;;5.93;2.50;;;19.70;99.90;;;;;;5074054;28;20363;-74
2021/09/08 07:23:47;;;;;;;9.18;3.20;;;19.70;99.90;;;;;;5074214;28;20032;-73
2021/09/08 07:26:12;;;;;;;6.43;2.85;;;19.70;99.90;;;;;;5074267;28;20020;-72
2021/09/08 07:28:38;;;;;;;5.07;2.70;;;19.70;99.90;;;;;;5073934;28;20138;-72
2021/09/08 07:31:04;;;;;;;7.90;3.20;;;19.70;99.90;;;;;;5073971;28;20024;-73
2021/09/08 07:33:30;;;;;;;5.25;3.03;;;19.60;99.90;;;;;;5073877;28;20027;-71
2021/09/08 07:35:56;;;;;;;6.75;2.70;;;19.70;99.90;;;;;;5073778;28;20099;-73
2021/09/08 07:38:22;;;;;;;9.52;3.08;;;19.80;99.90;;;;;;5074030;28;20024;-73
2021/09/08 07:40:49;;;;;;;5.88;3.17;;;19.70;99.90;;;;;;5073701;28;20017;-73
2021/09/08 07:43:14;;;;;;;7.53;3.20;;;19.70;99.90;;;;;;5073966;28;20025;-71
2021/09/08 07:45:40;;;;;;;5.43;2.90;;;19.60;99.90;;;;;;5073562;28;20038;-73
2021/09/08 07:48:06;;;;;;;6.13;2.88;;;19.70;99.90;;;;;;5073854;28;20029;-72
2021/09/08 07:50:31;;;;;;;7.78;5.38;;;19.80;99.90;;;;;;5072191;28;20387;-73
2021/09/08 07:52:57;;;;;;;6.50;2.92;;;19.90;99.90;;;;;;5073492;28;20028;-71
2021/09/08 07:55:23;;;;;;;6.82;2.92;;;20.00;99.90;;;;;;5073453;28;20104;-71
2021/09/08 07:57:49;;;;;;;6.18;3.28;;;19.90;99.90;;;;;;5073697;28;20094;-73
2021/09/08 08:00:15;;;;;;;6.10;3.30;;;19.90;99.90;;;;;;5073956;28;20025;-72
2021/09/08 08:02:49;;;;;;;7.97;3.20;;;20.00;99.90;;;;;;5073947;28;20112;-73
2021/09/08 08:05:15;;;;;;;7.68;4.00;;;20.10;99.90;;;;;;5073807;28;20024;-72
2021/09/08 08:07:42;;;;;;;6.22;3.50;;;20.10;99.90;;;;;;5073136;28;20040;-72
2021/09/08 08:10:09;;;;;;;6.50;3.80;;;20.20;99.90;;;;;;5073560;28;20027;-72
2021/09/08 08:12:35;;;;;;;6.72;3.83;;;20.20;99.90;;;;;;5073580;28;20020;-71
2021/09/08 08:15:01;;;;;;;8.50;3.58;;;20.20;99.90;;;;;;5073554;28;20077;-71
2021/09/08 08:17:27;;;;;;;6.50;3.30;;;20.80;99.90;;;;;;5073242;28;20107;-73
2021/09/08 08:19:53;;;;;;;6.25;3.15;;;21.60;99.90;;;;;;5073544;28;20178;-73
2021/09/08 08:22:19;;;;;;;7.03;3.20;;;22.20;99.90;;;;;;5073209;28;20078;-73
2021/09/08 08:24:44;;;;;;;6.30;3.20;;;22.80;99.50;;;;;;5073110;28;20103;-71
2021/09/08 08:27:11;;;;;;;7.07;3.40;;;23.20;99.30;;;;;;5073099;28;20390;-73
2021/09/08 08:29:37;;;;;;;7.32;2.97;;;23.50;99.10;;;;;;5072979;28;20021;-73
2021/09/08 08:32:03;;;;;;;4.68;3.28;;;23.80;95.70;;;;;;5071791;28;20027;-72
2021/09/08 08:34:29;;;;;;;7.60;3.70;;;24.10;97.20;;;;;;5073071;28;20021;-74
2021/09/08 08:36:55;;;;;;;6.78;3.55;;;24.50;95.50;;;;;;5073073;28;20044;-73
2021/09/08 08:39:21;;;;;;;5.13;2.95;;;24.60;92.90;;;;;;5073294;28;20507;-71
2021/09/08 08:41:47;;;;;;;6.10;2.90;;;25.10;91.50;;;;;;5073009;28;20047;-73
2021/09/08 08:44:15;;;;;;;4.90;3.03;;;25.40;91.40;;;;;;5073223;28;20474;-73
2021/09/08 08:46:41;;;;;;;7.43;3.58;;;25.70;93.00;;;;;;5073233;28;20025;-74
2021/09/08 08:49:06;;;;;;;7.13;3.75;;;25.80;90.60;;;;;;5073180;28;20028;-75
2021/09/08 08:51:33;;;;;;;6.25;3.50;;;26.20;90.00;;;;;;5072949;28;20092;-74
2021/09/08 08:53:58;;;;;;;5.68;3.13;;;26.60;87.50;;;;;;5073154;28;20048;-74
2021/09/08 08:56:24;;;;;;;8.20;3.10;;;26.70;84.50;;;;;;5071562;28;20068;-75
2021/09/08 08:58:51;;;;;;;5.50;2.97;;;27.10;83.50;;;;;;5072768;28;20394;-73
2021/09/08 09:01:22;;;;;;;6.22;3.33;;;27.40;86.30;;;;;;5072798;28;20106;-72
2021/09/08 09:04:13;;;;;;;7.30;3.50;;;27.70;83.40;;;;;;5073007;28;20028;-73
2021/09/08 09:06:46;;;;;;;7.45;3.47;;;28.00;79.20;;;;;;5063319;28;20032;-73
2021/09/08 09:09:15;;;;;;;4.50;3.20;;;27.90;77.10;;;;;;5073036;28;20378;-73
2021/09/08 09:11:43;;;;;;;7.05;3.00;;;27.70;81.60;;;;;;5072706;28;20078;-75
2021/09/08 09:14:11;;;;;;;5.57;3.03;;;27.70;80.50;;;;;;5073248;28;20021;-73
2021/09/08 09:16:41;;;;;;;7.07;3.45;;;27.20;81.80;;;;;;5072652;28;20052;-74
2021/09/08 09:19:09;;;;;;;6.32;3.22;;;27.50;82.50;;;;;;5072676;28;20125;-72
2021/09/08 09:21:35;;;;;;;6.75;2.85;;;28.30;76.20;;;;;;5072640;28;20020;-73
2021/09/08 09:24:03;;;;;;;5.70;2.90;;;29.10;72.80;;;;;;5073049;28;20035;-75
2021/09/08 09:26:34;;;;;;;4.25;2.65;;;29.00;73.30;;;;;;5072595;28;20021;-73
2021/09/08 09:29:12;;;;;;;4.07;2.80;;;28.90;74.10;;;;;;5072622;28;20025;-73
2021/09/08 09:31:51;;;;;;;6.93;2.67;;;28.90;72.60;;;;;;5072808;28;20063;-75
2021/09/08 09:34:17;;;;;;;;;;;29.50;70.70;;;;;;5072916;28;20028;-72
2021/09/08 09:36:42;;;;;;;7.15;2.90;;;30.00;72.50;;;;;;5072558;28;19904;-74
2021/09/08 09:39:08;;;;;;;5.65;2.55;;;30.20;67.80;;;;;;5072721;28;20029;-74
2021/09/08 09:41:35;;;;;;;4.93;2.40;;;30.10;67.30;;;;;;5074668;28;20372;-74
2021/09/08 09:44:15;;;;;;;4.75;2.80;;;30.50;66.20;;;;;;5075907;28;20066;-72
2021/09/08 09:46:43;;;;;;;5.68;3.05;;;31.10;64.10;;;;;;5076537;28;20016;-74
2021/09/08 09:49:10;;;;;;;5.90;2.55;;;30.50;65.60;;;;;;5074650;28;20500;-73
2021/09/08 09:51:36;;;;;;;6.15;3.15;;;29.80;68.60;;;;;;5075881;28;20024;-73
2021/09/08 09:54:02;;;;;;;7.88;3.42;;;29.60;69.30;;;;;;5075821;28;20039;-74
2021/09/08 09:56:27;;;;;;;4.82;2.88;;;29.70;69.90;;;;;;5076062;28;20043;-73
2021/09/08 09:58:54;;;;;;;5.03;3.15;;;28.90;70.60;;;;;;5075644;28;20035;-73
2021/09/08 10:01:20;;;;;;;6.20;3.10;;;28.10;72.30;;;;;;5075637;28;20024;-74
2021/09/08 10:03:46;;;;;;;6.40;3.30;;;28.50;73.90;;;;;;5074232;28;20041;-73
2021/09/08 10:06:13;;;;;;;4.75;3.10;;;29.10;73.20;;;;;;5075572;28;20363;-74
2021/09/08 10:08:45;;;;;;;7.85;3.05;;;29.00;70.60;;;;;;5075086;28;20540;-74
2021/09/08 10:11:16;;;;;;;5.00;3.22;;;28.20;70.60;;;;;;5075539;28;20467;-73
2021/09/08 10:13:56;;;;;;;4.53;2.80;;;28.10;71.90;;;;;;5075479;28;20025;-74
2021/09/08 10:16:22;;;;;;;5.13;2.90;;;28.70;70.50;;;;;;5075799;28;20016;-72
2021/09/08 10:18:49;;;;;;;4.13;2.83;;;28.90;70.20;;;;;;5075596;28;20024;-73
2021/09/08 10:21:19;;;;;;;5.38;2.80;;;29.20;70.30;;;;;;5075271;28;20364;-72
2021/09/08 10:24:00;;;;;;;6.15;3.30;;;28.70;70.20;;;;;;5075494;28;20023;-74
2021/09/08 10:26:30;;;;;;;6.00;3.35;;;28.20;73.60;;;;;;5075493;28;20074;-72
2021/09/08 10:29:07;;;;;;;7.00;3.17;;;28.20;74.20;;;;;;5075184;28;20482;-72
2021/09/08 10:31:40;;;;;;;6.25;3.35;;;28.20;72.10;;;;;;5075447;28;20103;-73
2021/09/08 10:34:08;;;;;;;5.13;3.00;;;28.20;73.80;;;;;;5075073;28;20036;-73
2021/09/08 10:36:36;;;;;;;4.28;2.70;;;28.00;73.20;;;;;;5075311;28;20509;-72
2021/09/08 10:39:13;;;;;;;8.68;3.08;;;27.90;75.30;;;;;;5074981;28;20029;-72
2021/09/08 10:41:44;;;;;;;5.78;2.58;;;27.80;76.20;;;;;;5075498;28;20356;-73
2021/09/08 10:44:12;;;;;;;4.22;2.70;;;27.80;77.60;;;;;;5074938;28;20032;-73
2021/09/08 10:46:52;;;;;;;5.70;2.88;;;27.50;78.10;;;;;;5074808;28;20027;-73
2021/09/08 10:49:36;;;;;;;4.15;2.70;;;27.30;76.80;;;;;;5075078;28;20016;-73
2021/09/08 10:52:03;;;;;;;4.07;2.38;;;27.10;79.30;;;;;;5072833;28;20112;-73
2021/09/08 10:54:29;;;;;;;4.88;2.78;;;27.20;81.30;;;;;;5074891;28;20024;-72
2021/09/08 10:56:55;;;;;;;4.47;2.90;;;27.10;80.60;;;;;;5073319;28;20032;-73
2021/09/08 10:59:20;;;;;;;4.30;2.70;;;27.00;79.50;;;;;;5074660;28;20028;-72
2021/09/08 11:01:50;;;;;;;4.75;2.70;;;26.90;79.40;;;;;;5074747;28;20482;-74
2021/09/08 11:04:16;;;;;;;;;;;26.80;80.30;;;;;;5075092;28;20072;-73
2021/09/08 11:06:45;;;;;;;4.22;3.08;;;26.80;80.90;;;;;;5074187;28;19913;-72
2021/09/08 11:09:16;;;;;;;4.03;2.97;;;26.60;82.30;;;;;;5074674;28;20018;-73
2021/09/08 11:11:56;;;;;;;6.47;3.67;;;26.50;82.80;;;;;;5074593;28;20021;-73
2021/09/08 11:14:49;;;;;;;5.68;3.47;;;26.50;82.20;;;;;;5074570;28;20052;-72
2021/09/08 11:17:25;;;;;;;4.88;3.28;;;26.50;80.80;;;;;;5074199;28;20510;-73
2021/09/08 11:19:54;;;;;;;4.93;3.28;;;26.40;80.60;;;;;;5074128;28;20102;-73
2021/09/08 11:22:20;;;;;;;7.20;4.18;;;26.50;81.00;;;;;;5074127;28;20099;-74
2021/09/08 11:24:59;;;;;;;7.82;4.15;;;26.30;82.60;;;;;;5073939;28;20562;-72
2021/09/08 11:27:26;;;;;;;7.00;4.00;;;26.20;85.30;;;;;;5072485;28;20017;-73
2021/09/08 11:30:05;;;;;;;5.57;3.65;;;26.30;81.20;;;;;;5073948;28;20027;-74
2021/09/08 11:33:05;;;;;;;4.63;3.58;;;26.30;82.00;;;;;;5073937;28;20066;-72
2021/09/08 11:35:34;;;;;;;6.18;3.78;;;26.40;83.80;;;;;;5030504;28;20075;-72
2021/09/08 11:38:00;;;;;;;;;;;26.30;83.70;;;;;;5074529;28;20359;-81
2021/09/08 11:40:27;;;;;;;5.82;3.67;;;26.30;84.00;;;;;;5073745;28;20328;-75
2021/09/08 11:42:53;;;;;;;5.10;3.50;;;26.20;83.70;;;;;;5073761;28;20044;-73
2021/09/08 11:45:29;;;;;;;9.18;3.83;;;26.10;83.20;;;;;;5073561;28;20509;-74
2021/09/08 11:47:56;;;;;;;5.22;3.60;;;26.10;84.20;;;;;;5073642;28;20107;-73
2021/09/08 11:50:21;;;;;;;4.68;3.22;;;26.10;84.50;;;;;;5073544;28;20027;-75
2021/09/08 11:52:58;;;;;;;7.60;3.40;;;26.10;83.20;;;;;;5073536;28;20028;-74
2021/09/08 11:55:32;;;;;;;8.05;3.50;;;26.10;83.80;;;;;;5073815;28;20426;-75
2021/09/08 11:58:18;;;;;;;6.90;3.75;;;26.10;81.10;;;;;;5073929;28;20056;-74
2021/09/08 12:01:03;;;;;;;4.90;3.50;;;26.00;85.10;;;;;;5073764;28;20017;-73
2021/09/08 12:03:31;;;;;;;6.15;3.40;;;26.20;85.10;;;;;;5071549;28;20028;-74
2021/09/08 12:06:12;;;;;;;5.05;3.47;;;26.20;83.50;;;;;;5072920;28;20025;-74
2021/09/08 12:09:10;;;;;;;7.30;3.65;;;26.20;86.30;;;;;;5071527;28;20119;-73
2021/09/08 12:11:45;;;;;;;4.60;2.95;;;26.30;83.30;;;;;;5073288;28;20425;-73
2021/09/08 12:14:39;;;;;;;4.53;2.72;;;26.60;83.00;;;;;;5073383;28;20482;-75
2021/09/08 12:17:13;;;;;;;5.10;2.88;;;26.60;79.60;;;;;;5073892;28;20024;-75
2021/09/08 12:19:43;;;;;;;4.97;3.03;;;26.80;79.20;;;;;;5073242;28;20077;-77
2021/09/08 12:22:16;;;;;;;5.13;3.10;;;26.80;77.90;;;;;;5073509;28;20382;-74
2021/09/08 12:24:46;;;;;;;5.00;3.15;;;26.80;80.50;;;;;;5073617;28;20060;-76
2021/09/08 12:27:30;;;;;;;4.07;2.50;;;26.80;79.90;;;;;;5073151;28;20032;-76
2021/09/08 12:29:58;;;;;;;5.55;2.63;;;27.00;75.00;;;;;;5073470;28;20099;-74
2021/09/08 12:32:41;;;;;;;4.30;2.70;;;27.00;75.60;;;;;;5073368;28;20024;-76
2021/09/08 12:35:07;;;;;;;4.18;2.60;;;27.10;77.50;;;;;;5073407;28;20032;-76
2021/09/08 12:37:33;;;;;;;3.15;2.60;;;27.00;78.70;;;;;;5073318;28;20021;-74
2021/09/08 12:39:58;;;;;;;4.10;2.58;;;27.00;77.20;;;;;;5073259;28;20474;-74
2021/09/08 12:42:27;;;;;;;6.93;3.00;;;27.00;78.10;;;;;;5073241;28;20032;-75
2021/09/08 12:45:05;;;;;;;4.78;2.60;;;27.00;77.30;;;;;;5071553;28;20398;-75
2021/09/08 12:47:31;;;;;;;4.22;2.65;;;26.90;75.50;;;;;;5072899;28;20059;-75